sensor_id;sensor_type;location;lat;lon;timestamp;P1;durP1;ratioP1;P2;durP2;ratioP2
60853;SDS011;48554;50.766;2.900;2022-10-22T11:05:31;1.55;;;0.40;;
60853;SDS011;48554;50.766;2.900;2022-10-22T11:08:13;4.47;;;0.75;;
60853;SDS011;48554;50.766;2.900;2022-10-22T11:11:02;1.95;;;0.40;;
60853;SDS011;48554;50.766;2.900;2022-10-22T11:13:33;3.05;;;0.50;;
60853;SDS011;48554;50.766;2.900;2022-10-22T11:16:05;2.88;;;0.52;;
60853;SDS011;48554;50.766;2.900;2022-10-22T11:21:36;1.05;;;0.40;;
60853;SDS011;48554;50.766;2.900;2022-10-22T11:24:22;2.60;;;0.70;;
60853;SDS011;48554;50.766;2.900;2022-10-22T11:29:21;1.30;;;0.50;;
60853;SDS011;48554;50.766;2.900;2022-10-22T11:31:44;2.90;;;0.60;;
60853;SDS011;48554;50.766;2.900;2022-10-22T11:34:10;3.08;;;0.77;;
60853;SDS011;48554;50.766;2.900;2022-10-22T11:36:34;1.25;;;0.55;;
60853;SDS011;48554;50.766;2.900;2022-10-22T11:38:56;0.77;;;0.32;;
60853;SDS011;48554;50.766;2.900;2022-10-22T11:41:16;2.53;;;0.60;;
60853;SDS011;48554;50.766;2.900;2022-10-22T11:49:04;2.65;;;0.45;;
60853;SDS011;48554;50.766;2.900;2022-10-22T11:51:37;3.20;;;0.50;;
60853;SDS011;48554;50.766;2.900;2022-10-22T11:54:00;1.52;;;0.40;;
60853;SDS011;48554;50.766;2.900;2022-10-22T11:56:41;1.27;;;0.47;;
60853;SDS011;48554;50.766;2.900;2022-10-22T11:59:07;2.07;;;0.63;;
60853;SDS011;48554;50.766;2.900;2022-10-22T12:01:47;1.45;;;0.38;;
60853;SDS011;48554;50.766;2.900;2022-10-22T12:04:16;1.55;;;0.40;;
60853;SDS011;48554;50.766;2.900;2022-10-22T12:09:22;2.28;;;0.43;;
60853;SDS011;48554;50.766;2.900;2022-10-22T12:11:46;1.65;;;0.30;;
60853;SDS011;48554;50.766;2.900;2022-10-22T12:17:13;2.05;;;0.38;;
60853;SDS011;48554;50.766;2.900;2022-10-22T12:19:35;1.70;;;0.32;;
60853;SDS011;48554;50.766;2.900;2022-10-22T12:24:28;1.65;;;0.32;;
60853;SDS011;48554;50.766;2.900;2022-10-22T12:26:50;4.53;;;0.60;;
60853;SDS011;48554;50.766;2.900;2022-10-22T12:29:12;1.70;;;0.33;;
60853;SDS011;48554;50.766;2.900;2022-10-22T12:31:35;0.85;;;0.20;;
60853;SDS011;48554;50.766;2.900;2022-10-22T12:33:57;1.92;;;0.50;;
60853;SDS011;48554;50.766;2.900;2022-10-22T12:36:18;2.72;;;0.40;;
60853;SDS011;48554;50.766;2.900;2022-10-22T12:38:38;1.87;;;0.40;;
60853;SDS011;48554;50.766;2.900;2022-10-22T12:40:58;1.43;;;0.50;;
60853;SDS011;48554;50.766;2.900;2022-10-22T12:43:23;1.77;;;0.60;;
60853;SDS011;48554;50.766;2.900;2022-10-22T12:45:46;2.50;;;0.57;;
60853;SDS011;48554;50.766;2.900;2022-10-22T12:48:19;2.92;;;0.70;;
60853;SDS011;48554;50.766;2.900;2022-10-22T12:50:43;2.50;;;0.43;;
60853;SDS011;48554;50.766;2.900;2022-10-22T12:53:16;1.00;;;0.30;;
60853;SDS011;48554;50.766;2.900;2022-10-22T12:55:36;2.38;;;0.40;;
60853;SDS011;48554;50.766;2.900;2022-10-22T12:57:57;2.67;;;0.63;;
60853;SDS011;48554;50.766;2.900;2022-10-22T13:00:25;1.77;;;0.50;;
60853;SDS011;48554;50.766;2.900;2022-10-22T13:02:51;1.80;;;0.50;;
60853;SDS011;48554;50.766;2.900;2022-10-22T13:07:41;2.42;;;0.60;;
60853;SDS011;48554;50.766;2.900;2022-10-22T13:10:13;0.95;;;0.50;;
60853;SDS011;48554;50.766;2.900;2022-10-22T13:12:36;3.55;;;0.40;;
60853;SDS011;48554;50.766;2.900;2022-10-22T13:14:56;1.80;;;0.40;;
60853;SDS011;48554;50.766;2.900;2022-10-22T13:17:48;0.77;;;0.22;;
60853;SDS011;48554;50.766;2.900;2022-10-22T13:20:17;1.23;;;0.40;;
60853;SDS011;48554;50.766;2.900;2022-10-22T13:22:40;2.40;;;0.32;;
60853;SDS011;48554;50.766;2.900;2022-10-22T13:27:34;0.40;;;0.20;;
60853;SDS011;48554;50.766;2.900;2022-10-22T13:30:09;2.83;;;0.85;;
60853;SDS011;48554;50.766;2.900;2022-10-22T13:32:36;4.20;;;1.13;;
60853;SDS011;48554;50.766;2.900;2022-10-22T13:34:58;2.83;;;0.73;;
60853;SDS011;48554;50.766;2.900;2022-10-22T13:37:20;1.40;;;0.32;;
60853;SDS011;48554;50.766;2.900;2022-10-22T13:39:40;1.23;;;0.30;;
60853;SDS011;48554;50.766;2.900;2022-10-22T13:42:00;1.83;;;0.43;;
60853;SDS011;48554;50.766;2.900;2022-10-22T13:44:20;0.90;;;0.33;;
60853;SDS011;48554;50.766;2.900;2022-10-22T13:46:41;0.80;;;0.30;;
60853;SDS011;48554;50.766;2.900;2022-10-22T13:49:01;1.63;;;0.50;;
60853;SDS011;48554;50.766;2.900;2022-10-22T13:51:24;2.10;;;0.47;;
60853;SDS011;48554;50.766;2.900;2022-10-22T13:53:51;1.15;;;0.40;;
60853;SDS011;48554;50.766;2.900;2022-10-22T13:56:16;0.65;;;0.30;;
60853;SDS011;48554;50.766;2.900;2022-10-22T13:58:38;1.60;;;0.40;;
60853;SDS011;48554;50.766;2.900;2022-10-22T14:00:59;2.33;;;0.63;;
60853;SDS011;48554;50.766;2.900;2022-10-22T14:03:20;1.37;;;0.30;;
60853;SDS011;48554;50.766;2.900;2022-10-22T14:05:44;1.45;;;0.40;;
60853;SDS011;48554;50.766;2.900;2022-10-22T14:08:10;1.40;;;0.35;;
60853;SDS011;48554;50.766;2.900;2022-10-22T14:10:31;0.80;;;0.43;;
60853;SDS011;48554;50.766;2.900;2022-10-22T14:12:52;2.97;;;0.60;;
60853;SDS011;48554;50.766;2.900;2022-10-22T14:15:13;2.53;;;0.50;;
60853;SDS011;48554;50.766;2.900;2022-10-22T14:17:35;1.33;;;0.45;;
60853;SDS011;48554;50.766;2.900;2022-10-22T14:19:55;1.63;;;0.40;;
60853;SDS011;48554;50.766;2.900;2022-10-22T14:22:18;0.67;;;0.40;;
60853;SDS011;48554;50.766;2.900;2022-10-22T14:24:39;1.02;;;0.32;;
60853;SDS011;48554;50.766;2.900;2022-10-22T14:26:59;3.27;;;0.47;;
60853;SDS011;48554;50.766;2.900;2022-10-22T14:29:19;0.73;;;0.30;;
60853;SDS011;48554;50.766;2.900;2022-10-22T14:31:40;1.87;;;0.40;;
60853;SDS011;48554;50.766;2.900;2022-10-22T14:34:02;2.47;;;0.43;;
60853;SDS011;48554;50.766;2.900;2022-10-22T14:36:22;2.37;;;0.30;;
60853;SDS011;48554;50.766;2.900;2022-10-22T14:38:43;0.20;;;0.20;;
60853;SDS011;48554;50.766;2.900;2022-10-22T14:41:09;3.08;;;0.50;;
60853;SDS011;48554;50.766;2.900;2022-10-22T14:45:57;1.33;;;0.30;;
60853;SDS011;48554;50.766;2.900;2022-10-22T14:48:17;5.30;;;0.67;;
60853;SDS011;48554;50.766;2.900;2022-10-22T14:50:38;2.43;;;0.30;;
60853;SDS011;48554;50.766;2.900;2022-10-22T14:52:58;2.83;;;0.73;;
60853;SDS011;48554;50.766;2.900;2022-10-22T14:55:19;0.87;;;0.50;;
60853;SDS011;48554;50.766;2.900;2022-10-22T14:57:39;3.20;;;0.60;;
60853;SDS011;48554;50.766;2.900;2022-10-22T15:00:00;1.30;;;0.33;;
60853;SDS011;48554;50.766;2.900;2022-10-22T15:02:20;0.67;;;0.27;;
60853;SDS011;48554;50.766;2.900;2022-10-22T15:04:41;1.10;;;0.40;;
60853;SDS011;48554;50.766;2.900;2022-10-22T15:07:01;1.13;;;0.30;;
60853;SDS011;48554;50.766;2.900;2022-10-22T15:09:22;0.63;;;0.37;;
60853;SDS011;48554;50.766;2.900;2022-10-22T15:11:42;0.30;;;0.17;;
60853;SDS011;48554;50.766;2.900;2022-10-22T15:14:03;1.60;;;0.53;;
60853;SDS011;48554;50.766;2.900;2022-10-22T15:16:23;2.20;;;0.43;;
60853;SDS011;48554;50.766;2.900;2022-10-22T15:18:43;1.40;;;0.30;;
60853;SDS011;48554;50.766;2.900;2022-10-22T15:21:05;1.40;;;0.43;;
60853;SDS011;48554;50.766;2.900;2022-10-22T15:23:39;4.18;;;0.50;;
60853;SDS011;48554;50.766;2.900;2022-10-22T15:25:59;2.07;;;0.60;;
60853;SDS011;48554;50.766;2.900;2022-10-22T15:28:19;1.87;;;0.30;;
60853;SDS011;48554;50.766;2.900;2022-10-22T15:30:40;4.03;;;0.63;;
60853;SDS011;48554;50.766;2.900;2022-10-22T15:33:00;2.27;;;0.57;;
60853;SDS011;48554;50.766;2.900;2022-10-22T15:35:21;2.00;;;0.47;;
60853;SDS011;48554;50.766;2.900;2022-10-22T15:37:41;4.20;;;0.30;;
60853;SDS011;48554;50.766;2.900;2022-10-22T15:40:02;2.23;;;0.57;;
60853;SDS011;48554;50.766;2.900;2022-10-22T15:42:23;3.78;;;0.93;;
60853;SDS011;48554;50.766;2.900;2022-10-22T15:44:44;0.47;;;0.20;;
60853;SDS011;48554;50.766;2.900;2022-10-22T15:47:05;1.13;;;0.40;;
60853;SDS011;48554;50.766;2.900;2022-10-22T15:49:26;3.15;;;0.52;;
60853;SDS011;48554;50.766;2.900;2022-10-22T15:51:47;2.33;;;0.50;;
60853;SDS011;48554;50.766;2.900;2022-10-22T15:54:09;0.50;;;0.13;;
60853;SDS011;48554;50.766;2.900;2022-10-22T15:56:32;1.85;;;0.50;;
60853;SDS011;48554;50.766;2.900;2022-10-22T15:58:53;1.23;;;0.30;;
60853;SDS011;48554;50.766;2.900;2022-10-22T16:01:15;1.00;;;0.40;;
60853;SDS011;48554;50.766;2.900;2022-10-22T16:03:36;1.87;;;0.40;;
60853;SDS011;48554;50.766;2.900;2022-10-22T16:05:56;1.37;;;0.50;;
60853;SDS011;48554;50.766;2.900;2022-10-22T16:08:16;1.30;;;0.30;;
60853;SDS011;48554;50.766;2.900;2022-10-22T16:10:37;1.10;;;0.27;;
60853;SDS011;48554;50.766;2.900;2022-10-22T16:13:03;2.28;;;0.45;;
60853;SDS011;48554;50.766;2.900;2022-10-22T16:15:24;0.80;;;0.33;;
60853;SDS011;48554;50.766;2.900;2022-10-22T16:17:44;1.57;;;0.40;;
60853;SDS011;48554;50.766;2.900;2022-10-22T16:20:04;1.20;;;0.37;;
60853;SDS011;48554;50.766;2.900;2022-10-22T16:22:25;1.50;;;0.40;;
60853;SDS011;48554;50.766;2.900;2022-10-22T16:24:45;0.60;;;0.40;;
60853;SDS011;48554;50.766;2.900;2022-10-22T16:27:06;1.27;;;0.20;;
60853;SDS011;48554;50.766;2.900;2022-10-22T16:29:26;1.03;;;0.33;;
60853;SDS011;48554;50.766;2.900;2022-10-22T16:31:47;1.40;;;0.37;;
60853;SDS011;48554;50.766;2.900;2022-10-22T16:34:07;0.70;;;0.33;;
60853;SDS011;48554;50.766;2.900;2022-10-22T16:36:28;1.57;;;0.20;;
60853;SDS011;48554;50.766;2.900;2022-10-22T16:38:48;0.83;;;0.47;;
60853;SDS011;48554;50.766;2.900;2022-10-22T16:41:21;0.83;;;0.27;;
60853;SDS011;48554;50.766;2.900;2022-10-22T16:43:44;2.30;;;0.43;;
60853;SDS011;48554;50.766;2.900;2022-10-22T16:46:06;1.75;;;0.40;;
60853;SDS011;48554;50.766;2.900;2022-10-22T16:48:27;0.50;;;0.30;;
60853;SDS011;48554;50.766;2.900;2022-10-22T16:50:47;0.67;;;0.40;;
60853;SDS011;48554;50.766;2.900;2022-10-22T16:53:07;0.50;;;0.30;;
60853;SDS011;48554;50.766;2.900;2022-10-22T16:55:28;0.73;;;0.40;;
60853;SDS011;48554;50.766;2.900;2022-10-22T16:57:49;0.80;;;0.40;;
60853;SDS011;48554;50.766;2.900;2022-10-22T17:00:10;0.60;;;0.38;;
60853;SDS011;48554;50.766;2.900;2022-10-22T17:02:31;1.33;;;0.40;;
60853;SDS011;48554;50.766;2.900;2022-10-22T17:04:51;1.53;;;0.60;;
60853;SDS011;48554;50.766;2.900;2022-10-22T17:07:11;1.17;;;0.50;;
60853;SDS011;48554;50.766;2.900;2022-10-22T17:09:31;1.07;;;0.47;;
60853;SDS011;48554;50.766;2.900;2022-10-22T17:11:52;1.07;;;0.20;;
60853;SDS011;48554;50.766;2.900;2022-10-22T17:14:12;1.00;;;0.37;;
60853;SDS011;48554;50.766;2.900;2022-10-22T17:16:32;1.60;;;0.40;;
60853;SDS011;48554;50.766;2.900;2022-10-22T17:18:53;2.10;;;0.50;;
60853;SDS011;48554;50.766;2.900;2022-10-22T17:21:14;1.43;;;0.50;;
60853;SDS011;48554;50.766;2.900;2022-10-22T17:23:35;1.40;;;0.35;;
60853;SDS011;48554;50.766;2.900;2022-10-22T17:25:59;2.17;;;0.50;;
60853;SDS011;48554;50.766;2.900;2022-10-22T17:28:21;1.00;;;0.22;;
60853;SDS011;48554;50.766;2.900;2022-10-22T17:30:41;2.87;;;0.47;;
60853;SDS011;48554;50.766;2.900;2022-10-22T17:33:02;1.30;;;0.50;;
60853;SDS011;48554;50.766;2.900;2022-10-22T17:35:22;3.47;;;0.50;;
60853;SDS011;48554;50.766;2.900;2022-10-22T17:37:42;0.53;;;0.30;;
60853;SDS011;48554;50.766;2.900;2022-10-22T17:40:03;0.67;;;0.17;;
60853;SDS011;48554;50.766;2.900;2022-10-22T17:42:24;1.33;;;0.47;;
60853;SDS011;48554;50.766;2.900;2022-10-22T17:44:44;1.67;;;0.33;;
60853;SDS011;48554;50.766;2.900;2022-10-22T17:47:04;1.67;;;0.50;;
60853;SDS011;48554;50.766;2.900;2022-10-22T17:49:24;1.27;;;0.57;;
60853;SDS011;48554;50.766;2.900;2022-10-22T17:51:45;2.40;;;0.60;;
60853;SDS011;48554;50.766;2.900;2022-10-22T17:54:06;1.90;;;0.47;;
60853;SDS011;48554;50.766;2.900;2022-10-22T17:56:27;1.10;;;0.30;;
60853;SDS011;48554;50.766;2.900;2022-10-22T17:58:48;1.92;;;0.55;;
60853;SDS011;48554;50.766;2.900;2022-10-22T18:01:42;1.42;;;0.43;;
60853;SDS011;48554;50.766;2.900;2022-10-22T18:04:00;3.13;;;0.50;;
60853;SDS011;48554;50.766;2.900;2022-10-22T18:06:23;2.03;;;0.50;;
60853;SDS011;48554;50.766;2.900;2022-10-22T18:08:43;2.93;;;0.70;;
60853;SDS011;48554;50.766;2.900;2022-10-22T18:11:07;1.33;;;0.50;;
60853;SDS011;48554;50.766;2.900;2022-10-22T18:13:28;3.55;;;0.70;;
60853;SDS011;48554;50.766;2.900;2022-10-22T18:15:55;2.00;;;0.60;;
60853;SDS011;48554;50.766;2.900;2022-10-22T18:18:15;3.45;;;0.88;;
60853;SDS011;48554;50.766;2.900;2022-10-22T18:20:36;1.47;;;0.47;;
60853;SDS011;48554;50.766;2.900;2022-10-22T18:22:56;1.00;;;0.43;;
60853;SDS011;48554;50.766;2.900;2022-10-22T18:25:16;2.27;;;0.70;;
60853;SDS011;48554;50.766;2.900;2022-10-22T18:27:36;0.87;;;0.47;;
60853;SDS011;48554;50.766;2.900;2022-10-22T18:29:57;2.97;;;0.60;;
60853;SDS011;48554;50.766;2.900;2022-10-22T18:32:17;1.30;;;0.40;;
60853;SDS011;48554;50.766;2.900;2022-10-22T18:34:37;2.43;;;0.50;;
60853;SDS011;48554;50.766;2.900;2022-10-22T18:36:57;1.47;;;0.60;;
60853;SDS011;48554;50.766;2.900;2022-10-22T18:39:18;2.13;;;0.73;;
60853;SDS011;48554;50.766;2.900;2022-10-22T18:41:38;2.13;;;0.57;;
60853;SDS011;48554;50.766;2.900;2022-10-22T18:43:59;1.77;;;0.60;;
60853;SDS011;48554;50.766;2.900;2022-10-22T18:46:21;2.17;;;0.60;;
60853;SDS011;48554;50.766;2.900;2022-10-22T18:48:42;1.37;;;0.50;;
60853;SDS011;48554;50.766;2.900;2022-10-22T18:51:03;3.57;;;0.50;;
60853;SDS011;48554;50.766;2.900;2022-10-22T18:53:26;1.48;;;0.50;;
60853;SDS011;48554;50.766;2.900;2022-10-22T18:55:47;1.33;;;0.50;;
60853;SDS011;48554;50.766;2.900;2022-10-22T18:58:07;1.27;;;0.53;;
60853;SDS011;48554;50.766;2.900;2022-10-22T19:00:28;1.33;;;0.53;;
60853;SDS011;48554;50.766;2.900;2022-10-22T19:02:48;1.03;;;0.43;;
60853;SDS011;48554;50.766;2.900;2022-10-22T19:05:08;0.97;;;0.53;;
60853;SDS011;48554;50.766;2.900;2022-10-22T19:07:29;1.40;;;0.83;;
60853;SDS011;48554;50.766;2.900;2022-10-22T19:09:49;2.47;;;0.57;;
60853;SDS011;48554;50.766;2.900;2022-10-22T19:12:09;1.37;;;0.50;;
60853;SDS011;48554;50.766;2.900;2022-10-22T19:14:30;2.07;;;0.67;;
60853;SDS011;48554;50.766;2.900;2022-10-22T19:16:51;3.50;;;0.73;;
60853;SDS011;48554;50.766;2.900;2022-10-22T19:19:11;1.67;;;0.70;;
60853;SDS011;48554;50.766;2.900;2022-10-22T19:21:36;1.98;;;0.60;;
60853;SDS011;48554;50.766;2.900;2022-10-22T19:23:57;1.40;;;0.67;;
60853;SDS011;48554;50.766;2.900;2022-10-22T19:26:18;1.33;;;0.40;;
60853;SDS011;48554;50.766;2.900;2022-10-22T19:28:39;0.93;;;0.60;;
60853;SDS011;48554;50.766;2.900;2022-10-22T19:31:00;3.03;;;0.80;;
60853;SDS011;48554;50.766;2.900;2022-10-22T19:33:24;2.10;;;0.70;;
60853;SDS011;48554;50.766;2.900;2022-10-22T19:35:45;0.77;;;0.55;;
60853;SDS011;48554;50.766;2.900;2022-10-22T19:38:05;2.87;;;1.00;;
60853;SDS011;48554;50.766;2.900;2022-10-22T19:40:25;0.70;;;0.40;;
60853;SDS011;48554;50.766;2.900;2022-10-22T19:42:46;2.03;;;0.83;;
60853;SDS011;48554;50.766;2.900;2022-10-22T19:45:06;1.27;;;0.60;;
60853;SDS011;48554;50.766;2.900;2022-10-22T19:47:27;1.90;;;0.60;;
60853;SDS011;48554;50.766;2.900;2022-10-22T19:49:47;3.37;;;1.00;;
60853;SDS011;48554;50.766;2.900;2022-10-22T19:52:07;3.50;;;0.90;;
60853;SDS011;48554;50.766;2.900;2022-10-22T19:54:28;1.60;;;0.70;;
60853;SDS011;48554;50.766;2.900;2022-10-22T19:56:48;1.90;;;0.87;;
60853;SDS011;48554;50.766;2.900;2022-10-22T19:59:09;2.70;;;0.87;;
60853;SDS011;48554;50.766;2.900;2022-10-22T20:01:30;2.20;;;0.70;;
60853;SDS011;48554;50.766;2.900;2022-10-22T20:03:50;1.20;;;0.67;;
60853;SDS011;48554;50.766;2.900;2022-10-22T20:06:12;2.47;;;0.80;;
60853;SDS011;48554;50.766;2.900;2022-10-22T20:08:35;2.45;;;0.80;;
60853;SDS011;48554;50.766;2.900;2022-10-22T20:13:16;1.87;;;0.87;;
60853;SDS011;48554;50.766;2.900;2022-10-22T20:15:36;2.73;;;0.70;;
60853;SDS011;48554;50.766;2.900;2022-10-22T20:17:57;3.63;;;0.70;;
60853;SDS011;48554;50.766;2.900;2022-10-22T20:20:17;0.90;;;0.50;;
60853;SDS011;48554;50.766;2.900;2022-10-22T20:22:38;2.63;;;0.60;;
60853;SDS011;48554;50.766;2.900;2022-10-22T20:24:58;2.80;;;0.90;;
60853;SDS011;48554;50.766;2.900;2022-10-22T20:27:18;2.93;;;0.80;;
60853;SDS011;48554;50.766;2.900;2022-10-22T20:29:38;3.57;;;0.90;;
60853;SDS011;48554;50.766;2.900;2022-10-22T20:31:59;2.63;;;0.90;;
60853;SDS011;48554;50.766;2.900;2022-10-22T20:34:19;2.77;;;0.90;;
60853;SDS011;48554;50.766;2.900;2022-10-22T20:36:40;4.00;;;1.03;;
60853;SDS011;48554;50.766;2.900;2022-10-22T20:39:02;3.37;;;0.80;;
60853;SDS011;48554;50.766;2.900;2022-10-22T20:41:25;2.00;;;0.77;;
60853;SDS011;48554;50.766;2.900;2022-10-22T20:43:45;1.90;;;0.73;;
60853;SDS011;48554;50.766;2.900;2022-10-22T20:46:06;1.77;;;0.85;;
60853;SDS011;48554;50.766;2.900;2022-10-22T20:48:27;4.03;;;1.00;;
60853;SDS011;48554;50.766;2.900;2022-10-22T20:50:48;2.40;;;0.93;;
60853;SDS011;48554;50.766;2.900;2022-10-22T20:53:08;1.77;;;0.83;;
60853;SDS011;48554;50.766;2.900;2022-10-22T20:55:28;2.87;;;1.00;;
60853;SDS011;48554;50.766;2.900;2022-10-22T20:57:48;2.83;;;0.90;;
60853;SDS011;48554;50.766;2.900;2022-10-22T21:00:09;1.43;;;0.80;;
60853;SDS011;48554;50.766;2.900;2022-10-22T21:02:30;3.20;;;1.03;;
60853;SDS011;48554;50.766;2.900;2022-10-22T21:04:50;2.33;;;0.90;;
60853;SDS011;48554;50.766;2.900;2022-10-22T21:07:10;2.60;;;0.80;;
60853;SDS011;48554;50.766;2.900;2022-10-22T21:09:30;2.13;;;0.73;;
60853;SDS011;48554;50.766;2.900;2022-10-22T21:11:51;2.03;;;0.87;;
60853;SDS011;48554;50.766;2.900;2022-10-22T21:14:12;2.40;;;0.80;;
60853;SDS011;48554;50.766;2.900;2022-10-22T21:16:34;2.30;;;0.82;;
60853;SDS011;48554;50.766;2.900;2022-10-22T21:18:55;2.40;;;0.90;;
60853;SDS011;48554;50.766;2.900;2022-10-22T21:21:15;1.73;;;0.70;;
60853;SDS011;48554;50.766;2.900;2022-10-22T21:23:35;2.03;;;0.87;;
60853;SDS011;48554;50.766;2.900;2022-10-22T21:25:56;2.60;;;0.87;;
60853;SDS011;48554;50.766;2.900;2022-10-22T21:28:17;2.50;;;1.07;;
60853;SDS011;48554;50.766;2.900;2022-10-22T21:30:43;1.20;;;0.63;;
60853;SDS011;48554;50.766;2.900;2022-10-22T21:33:04;2.05;;;0.85;;
60853;SDS011;48554;50.766;2.900;2022-10-22T21:35:24;2.67;;;0.70;;
60853;SDS011;48554;50.766;2.900;2022-10-22T21:37:44;2.67;;;0.90;;
60853;SDS011;48554;50.766;2.900;2022-10-22T21:40:05;2.20;;;1.10;;
60853;SDS011;48554;50.766;2.900;2022-10-22T21:42:25;2.00;;;1.15;;
60853;SDS011;48554;50.766;2.900;2022-10-22T21:44:46;2.03;;;0.93;;
60853;SDS011;48554;50.766;2.900;2022-10-22T21:47:06;2.03;;;0.70;;
60853;SDS011;48554;50.766;2.900;2022-10-22T21:49:26;2.90;;;1.10;;
60853;SDS011;48554;50.766;2.900;2022-10-22T21:51:47;1.67;;;1.00;;
60853;SDS011;48554;50.766;2.900;2022-10-22T21:54:07;2.27;;;0.90;;
60853;SDS011;48554;50.766;2.900;2022-10-22T21:56:29;1.57;;;0.87;;
60853;SDS011;48554;50.766;2.900;2022-10-22T21:58:51;2.05;;;0.85;;
60853;SDS011;48554;50.766;2.900;2022-10-22T22:01:12;2.33;;;0.90;;
60853;SDS011;48554;50.766;2.900;2022-10-22T22:03:33;1.95;;;0.77;;
60853;SDS011;48554;50.766;2.900;2022-10-22T22:06:00;1.93;;;0.90;;
60853;SDS011;48554;50.766;2.900;2022-10-22T22:08:21;1.48;;;0.73;;
60853;SDS011;48554;50.766;2.900;2022-10-22T22:10:41;2.40;;;1.03;;
60853;SDS011;48554;50.766;2.900;2022-10-22T22:13:02;3.30;;;0.90;;
60853;SDS011;48554;50.766;2.900;2022-10-22T22:15:22;2.63;;;0.90;;
60853;SDS011;48554;50.766;2.900;2022-10-22T22:17:42;2.63;;;0.90;;
60853;SDS011;48554;50.766;2.900;2022-10-22T22:20:03;1.73;;;0.90;;
60853;SDS011;48554;50.766;2.900;2022-10-22T22:22:23;3.53;;;1.20;;
60853;SDS011;48554;50.766;2.900;2022-10-22T22:24:43;3.60;;;1.13;;
60853;SDS011;48554;50.766;2.900;2022-10-22T22:27:04;3.57;;;1.07;;
60853;SDS011;48554;50.766;2.900;2022-10-22T22:29:24;3.70;;;1.40;;
60853;SDS011;48554;50.766;2.900;2022-10-22T22:31:45;4.83;;;1.20;;
60853;SDS011;48554;50.766;2.900;2022-10-22T22:34:06;3.00;;;1.07;;
60853;SDS011;48554;50.766;2.900;2022-10-22T22:36:34;3.38;;;1.60;;
60853;SDS011;48554;50.766;2.900;2022-10-22T22:38:56;5.63;;;1.30;;
60853;SDS011;48554;50.766;2.900;2022-10-22T22:41:17;2.53;;;1.13;;
60853;SDS011;48554;50.766;2.900;2022-10-22T22:43:37;3.07;;;0.93;;
60853;SDS011;48554;50.766;2.900;2022-10-22T22:46:01;4.23;;;1.33;;
60853;SDS011;48554;50.766;2.900;2022-10-22T22:48:23;3.00;;;1.30;;
60853;SDS011;48554;50.766;2.900;2022-10-22T22:50:44;2.83;;;0.97;;
60853;SDS011;48554;50.766;2.900;2022-10-22T22:53:04;3.20;;;1.10;;
60853;SDS011;48554;50.766;2.900;2022-10-22T22:55:24;1.73;;;0.87;;
60853;SDS011;48554;50.766;2.900;2022-10-22T22:57:44;3.47;;;1.20;;
60853;SDS011;48554;50.766;2.900;2022-10-22T23:00:05;4.13;;;1.20;;
60853;SDS011;48554;50.766;2.900;2022-10-22T23:02:26;3.07;;;1.10;;
60853;SDS011;48554;50.766;2.900;2022-10-22T23:04:46;2.50;;;1.20;;
60853;SDS011;48554;50.766;2.900;2022-10-22T23:07:06;2.20;;;0.77;;
60853;SDS011;48554;50.766;2.900;2022-10-22T23:09:27;5.33;;;1.50;;
60853;SDS011;48554;50.766;2.900;2022-10-22T23:11:47;3.70;;;1.13;;
60853;SDS011;48554;50.766;2.900;2022-10-22T23:14:09;4.23;;;1.20;;
60853;SDS011;48554;50.766;2.900;2022-10-22T23:16:31;3.47;;;1.40;;
60853;SDS011;48554;50.766;2.900;2022-10-22T23:18:53;2.97;;;1.20;;
60853;SDS011;48554;50.766;2.900;2022-10-22T23:21:19;4.57;;;1.10;;
60853;SDS011;48554;50.766;2.900;2022-10-22T23:24:02;2.40;;;0.98;;
60853;SDS011;48554;50.766;2.900;2022-10-22T23:26:29;6.97;;;1.30;;
60853;SDS011;48554;50.766;2.900;2022-10-22T23:28:51;3.47;;;1.02;;
60853;SDS011;48554;50.766;2.900;2022-10-22T23:31:12;4.17;;;1.10;;
60853;SDS011;48554;50.766;2.900;2022-10-22T23:33:34;3.08;;;1.17;;
60853;SDS011;48554;50.766;2.900;2022-10-22T23:35:55;3.43;;;1.20;;
60853;SDS011;48554;50.766;2.900;2022-10-22T23:38:15;3.30;;;1.10;;
60853;SDS011;48554;50.766;2.900;2022-10-22T23:40:35;2.10;;;1.40;;
60853;SDS011;48554;50.766;2.900;2022-10-22T23:42:55;4.37;;;0.97;;
60853;SDS011;48554;50.766;2.900;2022-10-22T23:45:16;3.67;;;1.30;;
60853;SDS011;48554;50.766;2.900;2022-10-22T23:47:36;2.00;;;0.93;;
60853;SDS011;48554;50.766;2.900;2022-10-22T23:49:56;3.07;;;1.00;;
60853;SDS011;48554;50.766;2.900;2022-10-22T23:52:16;4.73;;;1.10;;
60853;SDS011;48554;50.766;2.900;2022-10-22T23:54:37;2.03;;;0.97;;
60853;SDS011;48554;50.766;2.900;2022-10-22T23:56:57;4.43;;;1.20;;
60853;SDS011;48554;50.766;2.900;2022-10-22T23:59:17;3.17;;;1.10;;
